Neptune Antlia — S6BE — position and weather

sailwx.info

Track history (hours):
 
Tides and Currents Weather Stations Pressure Air Temp Water Temp Dewpoint Dewpoint Depression Visibility Wind Speed Wind Dir Waves Ship Positions

Neptune Antlia

Last reported at 2016-May-25 06:09 UTC. Time now 2016-May-30 18:26 UTC.
Position N 32°08' E 119°55'.

Type: Cargo ship. MMSI: 563737000.

Date/timePositionNaut miles runAvg speedWind from/ knotsBaromVisibWave heightAir tempDewpointWater temp
2016-May-25 06:09N 32°08' E 119°55'710.8
2016-May-25 05:31N 32°01' E 119°58'10 9.0
2016-May-25 04:22N 31°56' E 120°08'6 7.5
2016-May-25 03:33N 31°57' E 120°16'1211.7
2016-May-25 02:31N 32°02' E 120°28'1111.1
2016-May-25 01:30N 32°00' E 120°41'10 9.6
2016-May-25 00:29N 31°57' E 120°52'1011.0
2016-May-24 23:33N 31°47' E 120°57'1 0.0
2016-May-23 01:33N 31°46' E 120°57'8 7.9
2016-May-23 00:33N 31°45' E 121°06'3 3.3
2016-May-22 23:33N 31°42' E 121°09'0 0.0
2016-May-22 22:33N 31°42' E 121°09'0 0.0
2016-May-22 21:33N 31°42' E 121°09'0 0.3
2016-May-22 20:33N 31°42' E 121°09'1010.4
2016-May-22 19:33N 31°35' E 121°18'1111.3
2016-May-22 18:33N 31°28' E 121°28'9 9.3
2016-May-22 17:33N 31°22' E 121°37'1110.7
2016-May-22 16:31N 31°17' E 121°49'1310.2
2016-May-22 15:11N 31°14' E 122°04'  
2016-May-19 17:33N 23°34' E 117°58'22711.4
2016-May-18 21:33N 22°17' E 114°06'1 1.0
2016-May-18 20:31N 22°18' E 114°05'0 0.1
2016-May-18 19:25N 22°18' E 114°05'0 0.0
2016-May-18 18:31N 22°17' E 114°05'0 0.2
2016-May-18 17:28N 22°17' E 114°05'0 0.1
2016-May-18 16:28N 22°17' E 114°05'0 0.0
2016-May-18 15:31N 22°17' E 114°05'0 0.1
2016-May-18 14:28N 22°17' E 114°05'0 0.1
2016-May-18 13:31N 22°17' E 114°05'0 0.1
2016-May-18 12:31N 22°18' E 114°05'0 0.0
2016-May-18 11:28N 22°18' E 114°05'0 0.0
2016-May-18 10:31N 22°18' E 114°05'0 0.0
2016-May-18 09:31N 22°18' E 114°05'0 0.0
2016-May-18 08:31N 22°18' E 114°05'0 0.0
2016-May-18 07:22N 22°18' E 114°05'0 0.1
2016-May-18 06:28N 22°17' E 114°05'0 0.0
2016-May-18 05:30N 22°17' E 114°05'0 0.0
2016-May-18 04:30N 22°17' E 114°05'0 0.0
2016-May-18 03:33N 22°17' E 114°05'0 0.0
2016-May-18 02:27N 22°17' E 114°05'0 0.0
2016-May-18 01:33N 22°17' E 114°05'0 0.1
2016-May-18 00:33N 22°17' E 114°05'0 0.1
2016-May-17 23:30N 22°18' E 114°05'0 0.0
2016-May-17 22:33N 22°18' E 114°05'0 0.1
2016-May-17 21:33N 22°18' E 114°05'0 0.0
2016-May-17 20:33N 22°18' E 114°05'0 0.1
2016-May-17 19:30N 22°18' E 114°05'0 0.1
2016-May-17 18:27N 22°17' E 114°05'0 0.1
2016-May-17 17:27N 22°17' E 114°05'15 5.0
2016-May-17 14:26N 22°08' E 114°18'  
Track history (hours):
 
Tides and Currents Weather Stations Pressure Air Temp Water Temp Dewpoint Dewpoint Depression Visibility Wind Speed Wind Dir Waves Ship Positions

Neptune Antlia

Last reported at 2016-May-25 06:09 UTC. Time now 2016-May-30 18:26 UTC.
Position N 32°08' E 119°55'.

Type: Cargo ship. MMSI: 563737000.

Date/timePositionNaut miles runAvg speedWind from/ knotsBaromVisibWave heightAir tempDewpointWater temp
2016-May-25 06:09N 32°08' E 119°55'710.8
2016-May-25 05:31N 32°01' E 119°58'10 9.0
2016-May-25 04:22N 31°56' E 120°08'6 7.5
2016-May-25 03:33N 31°57' E 120°16'1211.7
2016-May-25 02:31N 32°02' E 120°28'1111.1
2016-May-25 01:30N 32°00' E 120°41'10 9.6
2016-May-25 00:29N 31°57' E 120°52'1011.0
2016-May-24 23:33N 31°47' E 120°57'1 0.0
2016-May-23 01:33N 31°46' E 120°57'8 7.9
2016-May-23 00:33N 31°45' E 121°06'3 3.3
2016-May-22 23:33N 31°42' E 121°09'0 0.0
2016-May-22 22:33N 31°42' E 121°09'0 0.0
2016-May-22 21:33N 31°42' E 121°09'0 0.3
2016-May-22 20:33N 31°42' E 121°09'1010.4
2016-May-22 19:33N 31°35' E 121°18'1111.3
2016-May-22 18:33N 31°28' E 121°28'9 9.3
2016-May-22 17:33N 31°22' E 121°37'1110.7
2016-May-22 16:31N 31°17' E 121°49'1310.2
2016-May-22 15:11N 31°14' E 122°04'  
2016-May-19 17:33N 23°34' E 117°58'22711.4
2016-May-18 21:33N 22°17' E 114°06'1 1.0
2016-May-18 20:31N 22°18' E 114°05'0 0.1
2016-May-18 19:25N 22°18' E 114°05'0 0.0
2016-May-18 18:31N 22°17' E 114°05'0 0.2
2016-May-18 17:28N 22°17' E 114°05'0 0.1
2016-May-18 16:28N 22°17' E 114°05'0 0.0
2016-May-18 15:31N 22°17' E 114°05'0 0.1
2016-May-18 14:28N 22°17' E 114°05'0 0.1
2016-May-18 13:31N 22°17' E 114°05'0 0.1
2016-May-18 12:31N 22°18' E 114°05'0 0.0
2016-May-18 11:28N 22°18' E 114°05'0 0.0
2016-May-18 10:31N 22°18' E 114°05'0 0.0
2016-May-18 09:31N 22°18' E 114°05'0 0.0
2016-May-18 08:31N 22°18' E 114°05'0 0.0
2016-May-18 07:22N 22°18' E 114°05'0 0.1
2016-May-18 06:28N 22°17' E 114°05'0 0.0
2016-May-18 05:30N 22°17' E 114°05'0 0.0
2016-May-18 04:30N 22°17' E 114°05'0 0.0
2016-May-18 03:33N 22°17' E 114°05'0 0.0
2016-May-18 02:27N 22°17' E 114°05'0 0.0
2016-May-18 01:33N 22°17' E 114°05'0 0.1
2016-May-18 00:33N 22°17' E 114°05'0 0.1
2016-May-17 23:30N 22°18' E 114°05'0 0.0
2016-May-17 22:33N 22°18' E 114°05'0 0.1
2016-May-17 21:33N 22°18' E 114°05'0 0.0
2016-May-17 20:33N 22°18' E 114°05'0 0.1
2016-May-17 19:30N 22°18' E 114°05'0 0.1
2016-May-17 18:27N 22°17' E 114°05'0 0.1
2016-May-17 17:27N 22°17' E 114°05'15 5.0
2016-May-17 14:26N 22°08' E 114°18'  

Dump ship's entire track history